createdAt,value
2022-10-05T00:01:53.085Z,101446.00
2022-10-05T00:04:39.873Z,101454.00
2022-10-05T00:07:26.586Z,101443.47
2022-10-05T00:10:19.055Z,101445.41
2022-10-05T00:13:12.399Z,101445.94
2022-10-05T00:16:05.977Z,101443.63
2022-10-05T00:18:55.073Z,101434.25
2022-10-05T00:21:41.648Z,101458.22
2022-10-05T00:24:28.531Z,101442.50
2022-10-05T00:27:20.777Z,101429.94
2022-10-05T00:30:16.048Z,101440.44
2022-10-05T00:33:02.411Z,101442.78
2022-10-05T00:35:50.410Z,101450.13
2022-10-05T00:38:39.431Z,101436.84
2022-10-05T00:41:38.314Z,101441.34
2022-10-05T00:44:43.977Z,101444.75
2022-10-05T00:47:50.543Z,101429.66
2022-10-05T00:50:55.919Z,101426.19
2022-10-05T00:53:49.353Z,101430.66
2022-10-05T00:57:05.623Z,101420.31
2022-10-05T01:00:04.028Z,101422.16
2022-10-05T01:02:57.412Z,101418.28
2022-10-05T01:05:57.090Z,101414.88
2022-10-05T01:08:52.004Z,101409.38
2022-10-05T01:11:50.194Z,101406.03
2022-10-05T01:14:47.464Z,101415.56
2022-10-05T01:17:42.209Z,101420.03
2022-10-05T01:20:37.237Z,101419.03
2022-10-05T01:23:47.413Z,101413.00
2022-10-05T01:26:52.023Z,101413.91
2022-10-05T01:29:45.128Z,101406.53
2022-10-05T01:32:37.618Z,101398.75
2022-10-05T01:35:39.489Z,101407.69
2022-10-05T01:38:44.273Z,101412.34
2022-10-05T01:41:38.171Z,101407.41
2022-10-05T01:44:32.283Z,101404.94
2022-10-05T01:47:29.305Z,101403.22
2022-10-05T01:50:28.585Z,101408.63
2022-10-05T01:53:26.033Z,101404.19
2022-10-05T01:56:20.467Z,101398.03
2022-10-05T01:59:18.960Z,101405.63
2022-10-05T02:02:11.321Z,101413.94
2022-10-05T02:05:08.539Z,101410.75
2022-10-05T02:08:00.307Z,101425.44
2022-10-05T02:10:53.309Z,101414.25
2022-10-05T02:13:44.229Z,101419.53
2022-10-05T02:16:36.162Z,101418.19
2022-10-05T02:19:25.592Z,101413.69
2022-10-05T02:22:19.337Z,101410.31
2022-10-05T02:25:11.325Z,101414.75
2022-10-05T02:28:02.339Z,101417.34
2022-10-05T02:30:55.156Z,101416.75
2022-10-05T02:33:41.857Z,101422.03
2022-10-05T02:36:37.578Z,101413.25
2022-10-05T02:39:34.845Z,101408.88
2022-10-05T02:42:27.122Z,101414.84
2022-10-05T02:45:24.354Z,101415.09
2022-10-05T02:48:17.503Z,101406.13
2022-10-05T02:51:14.672Z,101406.06
2022-10-05T02:54:09.068Z,101404.91
2022-10-05T02:57:01.636Z,101406.81
2022-10-05T02:59:59.217Z,101405.16
2022-10-05T03:02:50.255Z,101394.41
2022-10-05T03:05:41.956Z,101387.94
2022-10-05T03:08:35.992Z,101391.44
2022-10-05T03:11:31.515Z,101391.44
2022-10-05T03:14:27.200Z,101389.44
2022-10-05T03:17:19.260Z,101385.28
2022-10-05T03:20:26.216Z,101387.56
2022-10-05T03:23:21.425Z,101387.56
2022-10-05T03:26:24.553Z,101385.78
2022-10-05T03:29:28.607Z,101377.22
2022-10-05T03:32:26.522Z,101377.97
2022-10-05T03:35:19.290Z,101369.25
2022-10-05T03:38:16.871Z,101363.56
2022-10-05T03:41:13.440Z,101353.66
2022-10-05T03:44:17.741Z,101355.34
2022-10-05T03:47:13.619Z,101350.06
2022-10-05T03:50:26.810Z,101355.19
2022-10-05T03:53:19.513Z,101354.31
2022-10-05T03:56:11.209Z,101350.94
2022-10-05T03:59:03.243Z,101343.69
2022-10-05T04:01:55.495Z,101343.53
2022-10-05T04:04:48.306Z,101334.72
2022-10-05T04:07:43.697Z,101339.16
2022-10-05T04:10:36.723Z,101343.47
2022-10-05T04:13:29.617Z,101342.56
2022-10-05T04:16:21.507Z,101315.25
2022-10-05T04:19:15.464Z,101332.97
2022-10-05T04:22:09.386Z,101340.09
2022-10-05T04:25:02.665Z,101339.66
2022-10-05T04:27:56.388Z,101343.53
2022-10-05T04:30:47.551Z,101342.50
2022-10-05T04:33:33.971Z,101351.44
2022-10-05T04:36:26.444Z,101347.84
2022-10-05T04:39:23.970Z,101338.25
2022-10-05T04:42:16.395Z,101346.94
2022-10-05T04:45:10.025Z,101348.19
2022-10-05T04:48:30.354Z,101345.69
2022-10-05T04:51:36.713Z,101326.34
2022-10-05T04:54:39.007Z,101346.63
2022-10-05T04:57:33.542Z,101354.81
2022-10-05T05:00:24.339Z,101351.94
2022-10-05T05:03:30.725Z,101353.81
2022-10-05T05:06:33.749Z,101346.88
2022-10-05T05:09:38.842Z,101346.84
2022-10-05T05:12:32.168Z,101351.25
2022-10-05T05:15:29.187Z,101355.69
2022-10-05T05:18:46.651Z,101350.31
2022-10-05T05:21:43.561Z,101351.03
2022-10-05T05:24:42.015Z,101350.91
2022-10-05T05:27:42.028Z,101346.38
2022-10-05T05:30:42.076Z,101348.16
2022-10-05T05:33:39.300Z,101342.13
2022-10-05T05:36:50.478Z,101333.16
2022-10-05T05:39:47.770Z,101333.88
2022-10-05T05:42:44.563Z,101328.03
2022-10-05T05:45:41.662Z,101315.34
2022-10-05T05:48:38.019Z,101316.47
2022-10-05T05:51:31.020Z,101311.50
2022-10-05T05:54:26.780Z,101308.97
2022-10-05T05:57:21.731Z,101324.88
2022-10-05T06:00:20.278Z,101336.78
2022-10-05T06:03:17.441Z,101327.22
2022-10-05T06:06:08.046Z,101330.66
2022-10-05T06:08:59.137Z,101333.38
2022-10-05T06:11:56.418Z,101330.66
2022-10-05T06:14:51.760Z,101331.63
2022-10-05T06:17:43.530Z,101328.78
2022-10-05T06:20:36.997Z,101332.06
2022-10-05T06:23:30.971Z,101337.56
2022-10-05T06:26:29.598Z,101332.25
2022-10-05T06:29:22.006Z,101337.44
2022-10-05T06:32:20.350Z,101356.41
2022-10-05T06:35:20.192Z,101346.78
2022-10-05T06:38:25.310Z,101353.00
2022-10-05T06:41:20.749Z,101338.03
2022-10-05T06:44:11.719Z,101342.88
2022-10-05T06:47:08.536Z,101345.16
2022-10-05T06:50:33.982Z,101337.88
2022-10-05T06:53:48.129Z,101342.53
2022-10-05T06:56:43.938Z,101345.22
2022-10-05T06:59:44.377Z,101344.91
2022-10-05T07:02:40.194Z,101329.97
2022-10-05T07:05:45.710Z,101339.72
2022-10-05T07:08:45.655Z,101347.06
2022-10-05T07:11:52.996Z,101354.50
2022-10-05T07:15:07.670Z,101341.56
2022-10-05T07:18:10.227Z,101347.75
2022-10-05T07:21:05.031Z,101327.19
2022-10-05T07:24:03.825Z,101353.09
2022-10-05T07:26:58.610Z,101350.44
2022-10-05T07:29:52.916Z,101347.59
2022-10-05T07:32:50.139Z,101340.56
2022-10-05T07:36:04.904Z,101344.72
2022-10-05T07:39:00.741Z,101349.47
2022-10-05T07:41:54.280Z,101355.63
2022-10-05T07:44:49.357Z,101348.00
2022-10-05T07:47:40.424Z,101350.56
2022-10-05T07:50:32.311Z,101346.25
2022-10-05T07:53:23.577Z,101350.66
2022-10-05T07:56:17.026Z,101347.50
2022-10-05T07:59:08.941Z,101353.31
2022-10-05T08:02:01.136Z,101355.16
2022-10-05T08:04:54.619Z,101359.25
2022-10-05T08:07:42.059Z,101343.41
2022-10-05T08:10:34.344Z,101339.13
2022-10-05T08:13:45.029Z,101332.78
2022-10-05T08:16:38.643Z,101332.84
2022-10-05T08:19:33.709Z,101322.16
2022-10-05T08:22:25.416Z,101321.63
2022-10-05T08:25:24.549Z,101317.16
2022-10-05T08:28:18.865Z,101323.19
2022-10-05T08:31:14.915Z,101314.09
2022-10-05T08:34:16.945Z,101313.31
2022-10-05T08:37:07.159Z,101298.59
2022-10-05T08:39:57.792Z,101304.19
2022-10-05T08:43:06.513Z,101308.09
2022-10-05T08:46:21.369Z,101305.06
2022-10-05T08:49:28.986Z,101293.78
2022-10-05T08:52:29.082Z,101284.66
2022-10-05T08:55:39.254Z,101292.41
2022-10-05T08:58:46.381Z,101287.63
2022-10-05T09:01:50.444Z,101289.63
2022-10-05T09:04:52.082Z,101283.16
2022-10-05T09:08:15.216Z,101280.19
2022-10-05T09:11:12.983Z,101287.16
2022-10-05T09:14:27.550Z,101285.97
2022-10-05T09:17:39.448Z,101286.50
2022-10-05T09:20:32.295Z,101283.50
2022-10-05T09:23:36.257Z,101283.19
2022-10-05T09:26:55.757Z,101286.78
2022-10-05T09:30:16.761Z,101276.00
2022-10-05T09:33:32.888Z,101286.16
2022-10-05T09:36:59.569Z,101276.84
2022-10-05T09:40:17.633Z,101275.44
2022-10-05T09:43:24.034Z,101270.63
2022-10-05T09:46:47.757Z,101281.38
2022-10-05T09:49:58.042Z,101279.19
2022-10-05T09:53:04.805Z,101268.25
2022-10-05T09:56:34.757Z,101267.38
2022-10-05T09:59:46.243Z,101259.81
2022-10-05T10:02:53.605Z,101252.28
2022-10-05T10:06:11.234Z,101254.16
2022-10-05T10:09:22.563Z,101257.75
2022-10-05T10:12:25.626Z,101260.69
2022-10-05T10:15:48.615Z,101265.69
2022-10-05T10:19:12.883Z,101262.03
2022-10-05T10:22:16.396Z,101260.91
2022-10-05T10:25:38.947Z,101276.22
2022-10-05T10:29:07.562Z,101274.25
2022-10-05T10:32:13.664Z,101277.50
2022-10-05T10:35:23.210Z,101274.47
2022-10-05T10:38:37.052Z,101274.22
2022-10-05T10:42:03.437Z,101272.63
2022-10-05T10:45:28.791Z,101279.16
2022-10-05T10:48:49.986Z,101274.66
2022-10-05T10:52:14.649Z,101271.53
2022-10-05T10:55:26.446Z,101266.28
2022-10-05T10:58:46.025Z,101259.16
2022-10-05T11:01:38.465Z,101253.38
2022-10-05T11:05:01.698Z,101268.75
2022-10-05T11:08:04.833Z,101269.72
2022-10-05T11:11:31.061Z,101257.81
2022-10-05T11:14:46.554Z,101256.09
2022-10-05T11:17:54.128Z,101250.88
2022-10-05T11:21:05.866Z,101243.16
2022-10-05T11:24:23.813Z,101231.84
2022-10-05T11:27:44.387Z,101230.13
2022-10-05T11:30:53.332Z,101223.31
2022-10-05T11:34:20.629Z,101221.84
2022-10-05T11:37:32.032Z,101217.44
2022-10-05T11:41:09.846Z,101210.91
2022-10-05T11:44:35.525Z,101215.47
2022-10-05T11:47:27.421Z,101210.03
2022-10-05T11:50:21.488Z,101196.19
2022-10-05T11:53:15.156Z,101193.63
2022-10-05T11:56:09.805Z,101189.97
2022-10-05T11:59:02.901Z,101190.41
2022-10-05T12:01:58.927Z,101189.38
2022-10-05T12:04:58.881Z,101189.38
2022-10-05T12:07:55.955Z,101186.94
2022-10-05T12:10:49.991Z,101187.28
2022-10-05T12:13:43.417Z,101182.06
2022-10-05T12:16:37.621Z,101179.97
2022-10-05T12:19:31.889Z,101156.03
2022-10-05T12:22:23.094Z,101182.22
2022-10-05T12:25:34.670Z,101172.00
2022-10-05T12:28:29.192Z,101172.81
2022-10-05T12:31:32.088Z,101177.66
2022-10-05T12:34:36.044Z,101175.19
2022-10-05T12:37:40.124Z,101163.28
2022-10-05T12:40:32.456Z,101156.88
2022-10-05T12:43:29.916Z,101155.31
2022-10-05T12:46:26.418Z,101151.63
2022-10-05T12:49:41.495Z,101150.59
2022-10-05T12:52:51.806Z,101147.91
2022-10-05T12:55:48.021Z,101140.81
2022-10-05T12:58:44.474Z,101141.38
2022-10-05T13:01:40.890Z,101142.66
2022-10-05T13:04:40.985Z,101134.63
2022-10-05T13:07:40.900Z,101133.69
2022-10-05T13:10:34.815Z,101130.97
2022-10-05T13:13:44.570Z,101138.69
2022-10-05T13:16:41.432Z,101132.63
2022-10-05T13:19:40.347Z,101120.44
2022-10-05T13:22:35.401Z,101127.19
2022-10-05T13:25:30.479Z,101128.81
2022-10-05T13:28:22.530Z,101131.78
2022-10-05T13:31:14.320Z,101131.69
2022-10-05T13:34:15.375Z,101128.09
2022-10-05T13:37:13.081Z,101122.75
2022-10-05T13:40:13.741Z,101124.38
2022-10-05T13:43:04.977Z,101119.53
2022-10-05T13:45:57.190Z,101125.34
2022-10-05T13:48:56.300Z,101110.38
2022-10-05T13:51:49.558Z,101101.38
2022-10-05T13:54:47.431Z,101089.47
2022-10-05T13:57:45.358Z,101102.41
2022-10-05T14:00:37.868Z,101097.47
2022-10-05T14:03:27.563Z,101089.25
2022-10-05T14:06:27.737Z,101090.53
2022-10-05T14:09:28.928Z,101085.69
2022-10-05T14:12:21.764Z,101083.34
2022-10-05T14:15:21.319Z,101071.88
2022-10-05T14:18:24.546Z,101074.84
2022-10-05T14:21:22.286Z,101072.66
2022-10-05T14:24:43.122Z,101061.34
2022-10-05T14:27:35.098Z,101064.19
2022-10-05T14:30:24.703Z,101056.69
2022-10-05T14:33:17.254Z,101059.59
2022-10-05T14:36:04.985Z,101054.44
2022-10-05T14:38:56.207Z,101065.47
2022-10-05T14:41:47.335Z,101055.25
2022-10-05T14:44:35.262Z,101050.50
2022-10-05T14:47:24.522Z,101055.25
2022-10-05T14:50:18.226Z,101054.72
2022-10-05T14:53:16.722Z,101048.59
2022-10-05T14:56:32.336Z,101038.97
2022-10-05T14:59:39.539Z,101042.19
2022-10-05T15:02:55.735Z,101034.25
2022-10-05T15:05:49.353Z,101038.75
2022-10-05T15:08:50.741Z,101026.84
2022-10-05T15:11:48.212Z,101040.53
2022-10-05T15:14:39.260Z,101041.34
2022-10-05T15:17:28.827Z,101042.97
2022-10-05T15:20:25.650Z,101050.91
2022-10-05T15:23:24.633Z,101051.16
2022-10-05T15:26:29.702Z,101049.03
2022-10-05T15:29:29.576Z,101050.59
2022-10-05T15:32:23.951Z,101050.69
2022-10-05T15:35:39.559Z,101041.31
2022-10-05T15:38:28.273Z,101045.31
2022-10-05T15:41:19.106Z,101046.59
2022-10-05T15:44:15.153Z,101043.47
2022-10-05T15:47:07.273Z,101038.66
2022-10-05T15:50:04.174Z,101035.19
2022-10-05T15:53:03.432Z,101035.97
2022-10-05T15:55:54.764Z,101029.31
2022-10-05T15:58:51.014Z,101029.47
2022-10-05T16:01:47.885Z,101023.59
2022-10-05T16:04:44.875Z,101031.09
2022-10-05T16:08:00.348Z,101027.66
2022-10-05T16:10:48.543Z,101030.50
2022-10-05T16:13:45.553Z,101028.50
2022-10-05T16:16:44.117Z,101034.09
2022-10-05T16:19:40.595Z,101027.97
2022-10-05T16:22:43.646Z,101025.13
2022-10-05T16:25:57.559Z,101031.75
2022-10-05T16:28:56.934Z,101030.88
2022-10-05T16:31:57.663Z,101030.06
2022-10-05T16:34:59.483Z,101026.44
2022-10-05T16:37:59.043Z,101023.75
2022-10-05T16:40:58.399Z,101027.38
2022-10-05T16:43:56.873Z,101025.78
2022-10-05T16:46:51.901Z,101026.47
2022-10-05T16:49:47.942Z,101021.59
2022-10-05T16:52:35.222Z,101028.25
2022-10-05T16:55:31.663Z,101024.25
2022-10-05T16:58:27.072Z,101027.72
2022-10-05T17:01:34.974Z,101031.56
2022-10-05T17:04:40.656Z,101028.72
2022-10-05T17:07:45.918Z,101039.81
2022-10-05T17:10:46.645Z,101039.06
2022-10-05T17:13:47.598Z,101037.47
2022-10-05T17:16:52.492Z,101052.50
2022-10-05T17:19:48.050Z,101043.91
2022-10-05T17:22:39.967Z,101052.59
2022-10-05T17:25:35.514Z,101047.97
2022-10-05T17:28:36.904Z,101054.31
2022-10-05T17:31:26.228Z,101049.75
2022-10-05T17:34:30.913Z,101052.16
2022-10-05T17:37:35.632Z,101059.69
2022-10-05T17:40:36.012Z,101066.13
2022-10-05T17:43:27.920Z,101060.69
2022-10-05T17:46:40.368Z,101051.63
2022-10-05T17:50:09.880Z,101057.44
2022-10-05T17:53:39.149Z,101056.34
2022-10-05T17:56:25.888Z,101057.84
2022-10-05T17:59:12.598Z,101058.97
2022-10-05T18:02:21.258Z,101063.09
2022-10-05T18:05:22.717Z,101045.75
2022-10-05T18:08:31.856Z,101058.06
2022-10-05T18:11:36.807Z,101052.88
2022-10-05T18:14:25.635Z,101054.72
2022-10-05T18:17:14.524Z,101052.06
2022-10-05T18:20:19.203Z,101047.97
2022-10-05T18:23:30.299Z,101048.03
2022-10-05T18:26:28.893Z,101048.09
2022-10-05T18:29:41.974Z,101041.72
2022-10-05T18:32:42.410Z,101040.19
2022-10-05T18:35:39.276Z,101035.84
2022-10-05T18:38:41.826Z,101035.28
2022-10-05T18:41:45.482Z,101027.50
2022-10-05T18:44:39.551Z,101030.16
2022-10-05T18:47:36.212Z,101030.22
2022-10-05T18:50:30.671Z,101035.81
2022-10-05T18:53:27.076Z,101036.09
2022-10-05T18:56:24.187Z,101036.78
2022-10-05T18:59:25.510Z,101040.72
2022-10-05T19:02:24.600Z,101038.31
2022-10-05T19:05:46.337Z,101040.69
2022-10-05T19:08:39.240Z,101027.19
2022-10-05T19:11:35.702Z,101038.84
2022-10-05T19:14:33.406Z,101041.69
2022-10-05T19:17:26.176Z,101039.91
2022-10-05T19:20:26.861Z,101045.22
2022-10-05T19:23:25.600Z,101048.75
2022-10-05T19:26:18.624Z,101049.81
2022-10-05T19:29:11.669Z,101042.31
2022-10-05T19:32:04.640Z,101062.63
2022-10-05T19:35:04.905Z,101062.41
2022-10-05T19:38:03.644Z,101064.56
2022-10-05T19:41:01.888Z,101065.63
2022-10-05T19:44:15.758Z,101071.94
2022-10-05T19:47:07.860Z,101071.41
2022-10-05T19:50:21.884Z,101077.28
2022-10-05T19:53:15.508Z,101085.00
2022-10-05T19:56:17.479Z,101081.34
2022-10-05T19:59:13.323Z,101093.47
2022-10-05T20:02:00.399Z,101089.41
2022-10-05T20:04:49.582Z,101093.75
2022-10-05T20:07:36.385Z,101094.94
2022-10-05T20:10:29.716Z,101097.97
2022-10-05T20:13:21.675Z,101108.38
2022-10-05T20:16:35.071Z,101086.56
2022-10-05T20:19:47.670Z,101098.03
2022-10-05T20:22:38.113Z,101112.03
2022-10-05T20:25:33.343Z,101110.19
2022-10-05T20:28:31.987Z,101113.66
2022-10-05T20:31:20.173Z,101122.69
2022-10-05T20:34:08.195Z,101122.75
2022-10-05T20:36:54.641Z,101130.88
2022-10-05T20:39:46.793Z,101128.91
2022-10-05T20:42:35.107Z,101135.78
2022-10-05T20:45:22.012Z,101139.31
2022-10-05T20:48:09.835Z,101134.28
2022-10-05T20:50:56.559Z,101140.72
2022-10-05T20:53:45.910Z,101150.25
2022-10-05T20:56:32.743Z,101152.75
2022-10-05T20:59:21.088Z,101142.09
2022-10-05T21:02:07.702Z,101146.28
2022-10-05T21:04:54.372Z,101151.44
2022-10-05T21:07:44.762Z,101143.03
2022-10-05T21:10:31.621Z,101142.97
2022-10-05T21:13:18.731Z,101149.06
2022-10-05T21:16:08.829Z,101146.03
2022-10-05T21:18:55.516Z,101152.75
2022-10-05T21:21:43.708Z,101158.53
2022-10-05T21:24:30.109Z,101154.38
2022-10-05T21:27:16.917Z,101154.84
2022-10-05T21:30:06.493Z,101165.38
2022-10-05T21:35:46.009Z,101159.06
2022-10-05T21:38:32.815Z,101159.34
2022-10-05T21:41:19.825Z,101166.25
2022-10-05T21:44:06.834Z,101175.03
2022-10-05T21:46:53.642Z,101172.09
2022-10-05T21:49:42.780Z,101172.44
2022-10-05T21:52:29.409Z,101177.34
2022-10-05T21:55:16.110Z,101183.84
2022-10-05T21:58:04.229Z,101180.75
2022-10-05T22:00:50.778Z,101181.16
2022-10-05T22:03:37.797Z,101185.56
2022-10-05T22:06:25.730Z,101185.56
2022-10-05T22:09:12.586Z,101182.03
2022-10-05T22:11:59.312Z,101182.28
2022-10-05T22:14:45.995Z,101177.53
2022-10-05T22:17:33.105Z,101173.53
2022-10-05T22:20:21.981Z,101180.34
2022-10-05T22:23:12.256Z,101178.84
2022-10-05T22:25:59.196Z,101184.25
2022-10-05T22:28:47.041Z,101182.09
2022-10-05T22:31:33.911Z,101180.19
2022-10-05T22:34:20.791Z,101188.66
2022-10-05T22:37:08.421Z,101193.69
2022-10-05T22:39:57.090Z,101197.28
2022-10-05T22:42:43.637Z,101202.22
2022-10-05T22:45:32.706Z,101191.63
2022-10-05T22:48:19.556Z,101192.78
2022-10-05T22:51:06.473Z,101196.25
2022-10-05T22:53:53.370Z,101201.06
2022-10-05T22:56:41.509Z,101191.66
2022-10-05T22:59:28.129Z,101200.34
2022-10-05T23:02:15.173Z,101204.78
2022-10-05T23:05:01.757Z,101169.59
2022-10-05T23:07:48.573Z,101212.38
2022-10-05T23:10:35.533Z,101204.72
2022-10-05T23:13:23.674Z,101220.19
2022-10-05T23:16:12.246Z,101213.25
2022-10-05T23:19:00.208Z,101211.63
2022-10-05T23:21:46.822Z,101229.38
2022-10-05T23:24:34.015Z,101218.63
2022-10-05T23:27:20.918Z,101215.72
2022-10-05T23:30:11.871Z,101233.84
2022-10-05T23:32:58.646Z,101236.81
2022-10-05T23:35:45.427Z,101230.50
2022-10-05T23:38:32.412Z,101236.75
2022-10-05T23:41:37.652Z,101241.69
2022-10-05T23:44:29.906Z,101239.84
2022-10-05T23:47:23.690Z,101241.16
2022-10-05T23:50:13.749Z,101243.22
2022-10-05T23:53:18.037Z,101249.03
2022-10-05T23:56:13.794Z,101246.09
2022-10-05T23:59:20.880Z,101249.56
